WFLO2: Webbers Falls Lock & Dam & Reservoir (L&D 16)

Data processed at Fri Jan 05 2018 23:31


All information presented herein is the property of the government of the United States of America and may be revised or deleted at any time without prior notice.
Dissemination of this information without the expressed written consent of the Public Affairs Office, Tulsa District U.S. Army Corps of Engineers is strictly prohibited.
These data are gathered electronically and, as presented, have not undergone any form of quality control. These data are not guaranteed to be valid or correct.
Go to home page.
Go to station list.

Upstream stations:

Downstream station:
Previous Day
Next Day
Current Day
    
SHEF ID:       WFLO2     Webbers Falls Lock & Dam
STATION TYPE:  NAVIGATION LOCK
Normal Pool:  Bottom =   487.00, Top =   490.00

               PRECIP ELEVATION   STORAGE   TW-ELEV    INFLOW   RELEASE  AIR-TEMP  WIND-DIRWIND-SPEED REL-HUMID SOLAR-RAD   VOLTAGE  BAT-LOAD
                   in        ft     ac-ft        ft       cfs       cfs         F       deg       mph         %      W/m2      volt      volt
              Ccp-Rev   Ccp-Rev   Ccp-Rev   Ccp-Rev  Regi-Rev  Regi-Rev   Ccp-Rev   Ccp-Rev   Ccp-Rev   Ccp-Rev   Ccp-Rev   Ccp-Rev   Ccp-Rev
(US/Central)
01/03 00:00      0.00    489.76    167381    459.57      3353      2100     19.98    303.00      3.70     49.74      0.00     13.50     13.29
01/03 01:00      0.00    489.77    167495    459.59      3353      2100     19.02    313.00      5.80     53.82      0.00     13.50     13.29
01/03 02:00      0.00    489.75    167267    459.67      1833      2100     18.25    327.90      3.40     57.62      0.00     13.50     13.29
01/03 03:00      0.00    489.72    166926    459.73      1283      2100     16.90    150.40      2.80     61.09      0.00     13.50     13.29
01/03 04:00      0.00    489.70    166699    459.75      2766      2100     12.45     97.60      1.20     72.07      0.00     13.50     13.29
01/03 05:00      0.00    489.73    167040    459.74      3736      2100     10.85     93.80      1.30     76.11      0.00     13.50     13.29
01/03 06:00      0.00    489.77    167495    459.69      4982      2100     10.81    110.30      1.50     80.92      0.00     13.50     13.29
01/03 07:00      0.00    489.79    167722    459.76      5677      2100      9.95    100.60      0.40     83.17      0.00     13.50     13.29
01/03 08:00      0.00    489.82    168063    459.74      7053      2100      9.45     43.00      0.60     84.54      2.00     13.50     13.29
01/03 09:00      0.00    489.83    168177    459.48      5952      2100     15.53     11.40      3.10     77.03    125.40     13.50     13.29
01/03 10:00      0.00    489.91    169087    459.45     10565      2100     19.89    308.90      8.30     61.59    315.80     13.50     13.29
01/03 11:00      0.00    489.91    169087    459.95      9348      2100     22.96    320.30      6.80     56.56    473.30     13.50     13.29
01/03 12:00      0.00    490.03    170474    459.74      8678     11130     26.26    322.60      5.60     51.41    581.20     13.50     13.29
01/03 13:00      0.00    489.95    169541    459.74      6082      8950     28.71    313.80      8.10     52.30    620.20     13.50     13.05
01/03 14:00      0.00    489.87    168632    459.53      5662      8950     30.92    321.40      7.50     50.59    586.60     13.50     13.29
01/03 15:00      0.00    489.84    168291    459.47        79      8950     32.47    341.20     10.50     47.23    486.60     13.50     13.29
01/03 16:00      0.00    489.68    166472    459.64        50      8950     33.17    339.50      9.60     45.21    326.50     13.50     13.29
01/03 17:00      0.00    489.74    167154    459.77      2743      8950     33.48    335.10      7.80     46.45    105.60     13.50     13.29
01/03 18:00      0.00    489.60    165562    460.06      5846      8950     32.18    320.10      4.20     50.52      0.00     13.51     13.29
01/03 19:00      0.00    489.55    164993    460.08     10113      8580     27.73     91.00      0.70     58.55      0.00     13.50     13.29
01/03 20:00      0.00    489.70    166699    459.87     10208      8950     25.21     14.20      1.00     65.85      0.00     13.50     13.29
01/03 21:00      0.00    489.79    167722    459.57     10250      8950     23.40    349.50      2.10     75.20      0.00     13.50     13.29
01/03 22:00      0.00    489.98    169883    459.51      7538         0     22.12    352.10      2.70     81.60      0.00     13.50     13.29
01/03 23:00      0.00    490.06    170838    459.51      4415         0     22.77    344.50      3.40     86.26      0.00     13.51     13.29